Fort McMurray International Airport

Airport
ICAO code: 
CYMM
IATA Code: 
YMM
Summary
ICAO Region: 
NAM
Territory: 
Location: 
Fort McMurray, Alberta
Serving: 
Regional Municipality of Wood Buffalo
Elevation: 
1211 ft
Coordinates: 
Aerial View: 
56° 38' 56.844" N, 111° 13' 47.816" W
Metar
Observation
CYMM 262230Z AUTO 35012G21KT 6SM -SN FEW018 SCT028 OVC033 M02/M05 A3000 RMK SLP184
Station
Fort Mcmurray, Alta.
Date/Time
2022-01-26 22:30:00
Wind direction
350°
Wind speed
12 kts
Lowest cloud amount
few clouds
Temperature
-2°C
Dew point
-5°C
Humidity
79%
Weather condition
light snow

Fort McMurray International Airport is located 13 km southeast of Fort McMurray, Alberta, Canada.

Runways

Designator Length Width Surface Rops
7/25 2287 46 ASP Yes/Yes
Airport map: 
Aerial View: 

Accidents and Serious Incidents at or in the vicinity of CYMM

SKYbrary Partners:

Safety knowledge contributed by: